M I D A S
Marine Information and Data Acquisition System
Tripno 946 of the Zeeleeuw from 2005-07-14 07:46:47 to 2005-07-14 12:55:17
Back to CruiseResearch ActivitiesStationsMapUnderway DataData graphs

EquipmentUnitsComments
TimeDGPSUTC
LatitudeDGPSDM.mWGS84
LongitudeDGPSDM.mWGS84
SpeedMeteo Stationm/sRelative wind speed
DirectionMeteo StationdegRelative wind direction
TemperatureMeteo Stationdeg CelciusAir temperature
PressureMeteo StationPaAtmospheric pressure
HumidityMeteo Station%Relative humidity
Missing or incorrect values are displayed as -999
Metereological data collected by the RV Zeeleeuw from 2005-07-14 07:48:16 to 2005-07-14 13:05:42
Time Latitude Longitude Speed Direction Temperature Pressure Humidity
2005-07-14 07:49 51°13.613 2°56.053 2.6 120 15.5 102140 100
2005-07-14 07:50 51°13.639 2°55.966 1.9 128 15.5 102140 100
2005-07-14 07:51 51°13.675 2°55.868 1.7 132 15.5 102150 100
2005-07-14 07:52 51°13.697 2°55.777 2.3 135 15.6 102150 100
2005-07-14 07:53 51°13.704 2°55.755 1.9 124 15.6 102150 100
2005-07-14 07:54 51°13.708 2°55.745 0.6 135 15.6 102150 100
2005-07-14 07:55 51°13.77 2°55.698 -999 338 15.6 102150 100
2005-07-14 07:56 51°13.875 2°55.595 1.8 349 15.6 102150 100
2005-07-14 07:57 51°14.004 2°55.505 0.9 360 15.6 102150 100
2005-07-14 07:58 51°14.137 2°55.415 1.8 359 15.7 102140 100
2005-07-14 07:59 51°14.254 2°55.28 3.4 337 15.8 102140 100
2005-07-14 08:00 51°14.355 2°55.069 3.6 339 15.8 102140 100
2005-07-14 08:01 51°14.424 2°54.784 5.2 353 15.8 102140 100
2005-07-14 08:02 51°14.419 2°54.466 6.4 346 15.9 102140 100
2005-07-14 08:03 51°14.361 2°54.154 6.5 356 15.9 102140 100
2005-07-14 08:04 51°14.273 2°53.871 7.6 346 16 102140 100
2005-07-14 08:05 51°14.181 2°53.591 7.1 352 16 102140 100
2005-07-14 08:06 51°14.076 2°53.302 6.9 360 16 102140 100
2005-07-14 08:07 51°13.966 2°52.997 7.5 353 15.9 102140 100
2005-07-14 08:08 51°13.849 2°52.693 6.9 346 15.9 102130 100
2005-07-14 08:09 51°13.736 2°52.392 7.1 352 16 102130 100
2005-07-14 08:10 51°13.621 2°52.088 7.8 352 16.1 102130 100
2005-07-14 08:11 51°13.506 2°51.781 8.7 346 16.1 102130 100
2005-07-14 08:12 51°13.393 2°51.478 8.4 354 16.1 102130 100
2005-07-14 08:13 51°13.278 2°51.171 8.6 352 16 102130 100
2005-07-14 08:14 51°13.166 2°50.867 7.8 353 16 102130 100
2005-07-14 08:15 51°13.052 2°50.559 6.9 355 16 102140 100
2005-07-14 08:16 51°12.938 2°50.25 7.9 346 16 102130 100
2005-07-14 08:17 51°12.825 2°49.946 7.9 3 16 102130 100
2005-07-14 08:18 51°12.712 2°49.64 8.6 350 16.1 102130 100
2005-07-14 08:19 51°12.597 2°49.33 8.7 358 16.1 102130 100
2005-07-14 08:20 51°12.482 2°49.018 8.7 352 16 102130 100
2005-07-14 08:21 51°12.369 2°48.712 7.6 349 16 102130 100
2005-07-14 08:22 51°12.254 2°48.401 9.3 355 16 102130 100
2005-07-14 08:23 51°12.14 2°48.094 8.8 353 16 102130 100
2005-07-14 08:24 51°12.023 2°47.78 9.7 352 16 102130 100
2005-07-14 08:25 51°11.909 2°47.469 8.2 347 16 102130 100
2005-07-14 08:26 51°11.811 2°47.143 6.8 353 16 102130 100
2005-07-14 08:27 51°11.712 2°46.815 7 354 16 102130 100
2005-07-14 08:28 51°11.623 2°46.48 7.7 345 16 102130 100
2005-07-14 08:29 51°11.535 2°46.141 7.6 356 16 102130 100
2005-07-14 08:30 51°11.447 2°45.807 7.5 349 16 102130 100
2005-07-14 08:31 51°11.359 2°45.466 7.7 352 16 102130 100
2005-07-14 08:32 51°11.273 2°45.129 7 351 15.9 102140 100
2005-07-14 08:33 51°11.185 2°44.786 8.2 349 16 102140 100
2005-07-14 08:34 51°11.097 2°44.444 7 348 16 102140 100
2005-07-14 08:35 51°11.01 2°44.106 7.2 358 16.1 102140 100
2005-07-14 08:36 51°10.921 2°43.763 8.3 353 16.1 102140 100
2005-07-14 08:37 51°10.832 2°43.43 9.6 351 16.1 102140 100
2005-07-14 08:38 51°10.742 2°43.092 7.2 349 16 102140 100
2005-07-14 08:39 51°10.66 2°42.752 7.6 359 16 102140 100
2005-07-14 08:40 51°10.578 2°42.405 8.7 356 16 102140 100
2005-07-14 08:41 51°10.495 2°42.059 8.5 1 16 102150 100
2005-07-14 08:42 51°10.415 2°41.712 7.3 355 15.9 102140 100
2005-07-14 08:43 51°10.342 2°41.364 8.5 359 15.9 102140 100
2005-07-14 08:44 51°10.255 2°41.025 7.6 6 15.9 102150 100
2005-07-14 08:45 51°10.155 2°40.691 7.4 355 15.9 102150 100
2005-07-14 08:46 51°10.057 2°40.357 8.2 355 15.9 102150 100
2005-07-14 08:47 51°9.962 2°40.023 7.7 354 15.8 102150 100
2005-07-14 08:48 51°9.866 2°39.685 7.3 9 15.9 102150 100
2005-07-14 08:49 51°9.769 2°39.343 7.7 355 15.9 102160 100
2005-07-14 08:50 51°9.675 2°39.002 8 359 15.9 102150 100
2005-07-14 08:51 51°9.607 2°38.649 7.8 359 15.9 102150 100
2005-07-14 08:52 51°9.536 2°38.288 8.9 6 15.9 102150 100
2005-07-14 08:53 51°9.466 2°37.932 8.2 5 15.8 102160 100
2005-07-14 08:54 51°9.358 2°37.601 8.5 8 15.8 102150 100
2005-07-14 08:55 51°9.239 2°37.311 6.2 5 15.7 102160 100
2005-07-14 08:56 51°9.162 2°37.156 2.7 9 15.7 102160 100
2005-07-14 08:57 51°9.155 2°37.135 -999 345 15.8 102160 100
2005-07-14 08:58 51°9.157 2°37.131 -999 350 15.9 102160 100
2005-07-14 08:59 51°9.159 2°37.123 -999 2 15.9 102160 100
2005-07-14 09:00 51°9.163 2°37.112 -999 1 15.9 102160 100
2005-07-14 09:01 51°9.165 2°37.098 -999 355 16.1 102160 100
2005-07-14 09:02 51°9.168 2°37.083 -999 8 16.1 102160 100
2005-07-14 09:03 51°9.17 2°37.066 -999 333 16.2 102160 100
2005-07-14 09:04 51°9.171 2°37.048 1.2 336 16.3 102160 100
2005-07-14 09:05 51°9.172 2°37.028 0.4 339 16.4 102160 100
2005-07-14 09:06 51°9.172 2°37.008 -999 355 16.5 102160 100
2005-07-14 09:07 51°9.172 2°36.986 1.4 20 16.4 102160 100
2005-07-14 09:08 51°9.172 2°36.964 1.8 18 16.5 102160 100
2005-07-14 09:09 51°9.172 2°36.942 1.2 25 16.6 102160 100
2005-07-14 09:10 51°9.171 2°36.919 1.2 27 16.4 102160 100
2005-07-14 09:11 51°9.169 2°36.896 1 27 16.4 102160 100
2005-07-14 09:12 51°9.167 2°36.872 2 35 16.3 102160 100
2005-07-14 09:13 51°9.165 2°36.848 1 96 16.3 102160 100
2005-07-14 09:14 51°9.163 2°36.824 2 86 16.3 102160 100
2005-07-14 09:15 51°9.161 2°36.8 1.3 104 16.4 102160 100
2005-07-14 09:16 51°9.158 2°36.777 1.8 115 16.3 102160 99
2005-07-14 09:17 51°9.155 2°36.753 1.7 112 16.4 102150 99
2005-07-14 09:18 51°9.151 2°36.73 1.1 116 16.4 102160 99
2005-07-14 09:19 51°9.148 2°36.707 1.7 138 16.4 102150 99
2005-07-14 09:20 51°9.144 2°36.684 1.3 145 16.4 102150 99
2005-07-14 09:21 51°9.14 2°36.66 1.2 148 16.3 102150 99
2005-07-14 09:22 51°9.134 2°36.642 0.4 151 16.3 102150 99
2005-07-14 09:23 51°9.132 2°36.677 1.4 307 16.4 102150 99
2005-07-14 09:24 51°9.153 2°36.742 1.1 42 16.6 102150 99
2005-07-14 09:25 51°9.156 2°36.825 1 332 16.7 102150 99
2005-07-14 09:26 51°9.147 2°36.906 -999 340 16.9 102150 99
2005-07-14 09:27 51°9.134 2°36.982 -999 340 16.9 102150 99
2005-07-14 09:28 51°9.128 2°37.055 -999 340 17.1 102150 99
2005-07-14 09:29 51°9.128 2°37.126 -999 340 17.4 102150 98
2005-07-14 09:30 51°9.126 2°37.197 -999 332 17.7 102150 98
2005-07-14 09:31 51°9.122 2°37.268 -999 338 18 102140 97
2005-07-14 09:32 51°9.117 2°37.338 -999 338 18.3 102140 96
2005-07-14 09:33 51°9.117 2°37.409 -999 334 18.5 102140 94
2005-07-14 09:34 51°9.122 2°37.48 -999 335 18.7 102140 91
2005-07-14 09:35 51°9.133 2°37.548 -999 318 18.8 102140 89
2005-07-14 09:36 51°9.145 2°37.618 -999 43 18.9 102140 86
2005-07-14 09:37 51°9.153 2°37.689 -999 316 19 102140 84
2005-07-14 09:38 51°9.161 2°37.76 -999 318 19.1 102140 82
2005-07-14 09:39 51°9.171 2°37.831 -999 318 19 102140 81
2005-07-14 09:40 51°9.179 2°37.902 -999 310 19 102140 81
2005-07-14 09:41 51°9.187 2°37.974 -999 305 19 102140 81
2005-07-14 09:42 51°9.198 2°38.045 -999 314 19 102140 81
2005-07-14 09:43 51°9.212 2°38.113 -999 228 19 102140 81
2005-07-14 09:44 51°9.23 2°38.18 -999 307 19 102140 80
2005-07-14 09:45 51°9.245 2°38.249 -999 315 18.9 102140 81
2005-07-14 09:46 51°9.26 2°38.319 -999 312 18.9 102140 81
2005-07-14 09:47 51°9.276 2°38.39 -999 308 18.8 102140 81
2005-07-14 09:48 51°9.29 2°38.46 -999 311 18.8 102140 81
2005-07-14 09:49 51°9.305 2°38.529 -999 315 18.8 102140 82
2005-07-14 09:50 51°9.318 2°38.598 -999 306 18.7 102140 82
2005-07-14 09:51 51°9.333 2°38.667 -999 308 18.7 102140 82
2005-07-14 09:52 51°9.347 2°38.733 -999 315 18.7 102140 82
2005-07-14 09:53 51°9.362 2°38.799 -999 308 18.7 102140 82
2005-07-14 09:54 51°9.376 2°38.866 -999 310 18.7 102140 82
2005-07-14 09:55 51°9.39 2°38.933 -999 312 18.7 102140 82
2005-07-14 09:56 51°9.407 2°38.998 -999 307 18.7 102140 82
2005-07-14 09:57 51°9.421 2°39.062 -999 303 18.7 102140 82
2005-07-14 09:58 51°9.435 2°39.127 -999 306 18.7 102140 83
2005-07-14 09:59 51°9.449 2°39.191 -999 307 18.7 102140 83
2005-07-14 10:00 51°9.463 2°39.255 2.2 299 18.7 102140 83
2005-07-14 10:01 51°9.478 2°39.32 2 43 18.7 102140 83
2005-07-14 10:02 51°9.492 2°39.383 1.4 322 18.8 102140 83
2005-07-14 10:03 51°9.507 2°39.448 1.9 314 18.7 102140 83
2005-07-14 10:04 51°9.522 2°39.515 1.7 316 18.7 102140 83
2005-07-14 10:05 51°9.537 2°39.582 1.5 42 18.7 102140 83
2005-07-14 10:06 51°9.552 2°39.65 1.7 320 18.8 102140 83
2005-07-14 10:07 51°9.567 2°39.716 2.1 321 18.7 102130 83
2005-07-14 10:08 51°9.582 2°39.783 2 316 18.8 102130 83
2005-07-14 10:09 51°9.596 2°39.851 1.6 43 18.8 102130 83
2005-07-14 10:10 51°9.61 2°39.918 1.2 43 18.8 102130 83
2005-07-14 10:11 51°9.624 2°39.986 1.6 308 18.9 102130 83
2005-07-14 10:12 51°9.638 2°40.055 2 311 19 102130 83
2005-07-14 10:13 51°9.652 2°40.123 1.7 311 19 102130 83
2005-07-14 10:14 51°9.667 2°40.191 1.7 305 19.1 102130 82
2005-07-14 10:15 51°9.681 2°40.26 1.6 311 19.1 102130 82
2005-07-14 10:16 51°9.697 2°40.33 1.7 228 19.2 102130 82
2005-07-14 10:17 51°9.713 2°40.397 1.7 42 19.3 102130 81
2005-07-14 10:18 51°9.727 2°40.466 1.5 311 19.3 102130 81
2005-07-14 10:19 51°9.742 2°40.534 1.8 227 19.3 102130 81
2005-07-14 10:20 51°9.762 2°40.598 2.2 317 19.3 102120 81
2005-07-14 10:21 51°9.781 2°40.662 1.7 319 19.3 102120 81
2005-07-14 10:22 51°9.8 2°40.726 2.1 320 19.2 102120 81
2005-07-14 10:23 51°9.819 2°40.792 2.3 227 19.2 102120 81
2005-07-14 10:24 51°9.837 2°40.856 1.6 321 19.2 102120 82
2005-07-14 10:25 51°9.855 2°40.919 1.7 313 19.1 102120 82
2005-07-14 10:26 51°9.875 2°40.989 2 312 19.2 102120 82
2005-07-14 10:27 51°9.89 2°41.082 1.6 331 19.2 102110 82
2005-07-14 10:28 51°9.901 2°41.186 2.3 318 19.2 102110 82
2005-07-14 10:29 51°9.913 2°41.286 1.6 227 19.1 102110 82
2005-07-14 10:30 51°9.912 2°41.347 0.8 290 19.2 102110 83
2005-07-14 10:31 51°9.9 2°41.379 0.6 273 19.2 102110 83
2005-07-14 10:32 51°9.884 2°41.391 0.6 229 19.2 102110 82
2005-07-14 10:33 51°9.868 2°41.392 1 225 19 102110 82
2005-07-14 10:34 51°9.842 2°41.412 1 258 18.9 102110 82
2005-07-14 10:35 51°9.847 2°41.486 3.2 317 19.1 102110 84
2005-07-14 10:36 51°9.918 2°41.535 4.3 339 19.1 102110 84
2005-07-14 10:37 51°10.011 2°41.589 4.3 331 19 102100 84
2005-07-14 10:38 51°10.072 2°41.648 3.3 325 18.9 102100 84
2005-07-14 10:39 51°10.113 2°41.704 2.9 304 18.8 102110 85
2005-07-14 10:40 51°10.144 2°41.764 2.7 312 18.8 102110 85
2005-07-14 10:41 51°10.173 2°41.818 2.4 313 18.8 102100 86
2005-07-14 10:42 51°10.2 2°41.874 2.1 310 18.8 102110 86
2005-07-14 10:43 51°10.225 2°41.933 2.2 312 18.9 102100 86
2005-07-14 10:44 51°10.25 2°41.991 2.2 306 18.9 102110 86
2005-07-14 10:45 51°10.274 2°42.047 2.3 300 18.9 102110 85
2005-07-14 10:46 51°10.296 2°42.102 2.2 300 19 102100 86
2005-07-14 10:47 51°10.317 2°42.157 2.3 291 19 102100 85
2005-07-14 10:48 51°10.338 2°42.211 2.3 293 19.1 102100 86
2005-07-14 10:49 51°10.358 2°42.265 2 297 19.2 102100 85
2005-07-14 10:50 51°10.378 2°42.32 2.4 297 19.2 102100 85
2005-07-14 10:51 51°10.4 2°42.376 2.3 294 19.2 102100 85
2005-07-14 10:52 51°10.415 2°42.436 2.1 287 19.2 102100 85
2005-07-14 10:53 51°10.427 2°42.501 2.1 290 19.3 102100 85
2005-07-14 10:54 51°10.44 2°42.566 2.1 294 19.3 102100 84
2005-07-14 10:55 51°10.453 2°42.63 1.8 295 19.4 102100 84
2005-07-14 10:56 51°10.465 2°42.695 2.2 290 19.4 102100 83
2005-07-14 10:57 51°10.482 2°42.757 2.4 296 19.4 102100 83
2005-07-14 10:58 51°10.503 2°42.817 2.3 296 19.4 102100 83
2005-07-14 10:59 51°10.523 2°42.879 2.5 299 19.5 102100 83
2005-07-14 11:00 51°10.542 2°42.94 2.6 298 19.5 102090 83
2005-07-14 11:01 51°10.561 2°42.999 2.6 290 19.5 102090 83
2005-07-14 11:02 51°10.581 2°43.059 2.8 296 19.5 102090 83
2005-07-14 11:03 51°10.6 2°43.118 2.8 305 19.5 102090 83
2005-07-14 11:04 51°10.619 2°43.177 2.5 296 19.5 102090 84
2005-07-14 11:05 51°10.637 2°43.235 3 298 19.5 102090 84
2005-07-14 11:06 51°10.657 2°43.293 2.9 296 19.5 102090 84
2005-07-14 11:07 51°10.676 2°43.352 3 294 19.5 102090 84
2005-07-14 11:08 51°10.694 2°43.41 3 294 19.4 102080 84
2005-07-14 11:09 51°10.712 2°43.47 3 296 19.4 102080 84
2005-07-14 11:10 51°10.725 2°43.542 2.9 293 19.4 102080 84
2005-07-14 11:11 51°10.733 2°43.626 2.9 297 19.4 102080 84
2005-07-14 11:12 51°10.733 2°43.707 2.4 280 19.4 102080 85
2005-07-14 11:13 51°10.716 2°43.758 2 240 19.4 102080 84
2005-07-14 11:14 51°10.691 2°43.783 1.9 222 19.3 102080 84
2005-07-14 11:15 51°10.662 2°43.796 1 214 19.1 102080 84
2005-07-14 11:16 51°10.638 2°43.931 4.1 325 19 102080 86
2005-07-14 11:17 51°10.689 2°44.148 6 333 19 102070 87
2005-07-14 11:18 51°10.732 2°44.403 5.6 330 18.9 102070 87
2005-07-14 11:19 51°10.774 2°44.655 6.3 332 18.8 102070 88
2005-07-14 11:20 51°10.815 2°44.916 5.2 335 18.8 102070 88
2005-07-14 11:21 51°10.853 2°45.162 5.2 328 18.7 102070 89
2005-07-14 11:22 51°10.889 2°45.403 5.1 330 18.7 102070 89
2005-07-14 11:23 51°10.926 2°45.647 5 332 18.6 102070 90
2005-07-14 11:24 51°10.961 2°45.886 4.7 331 18.6 102070 91
2005-07-14 11:25 51°10.993 2°46.121 4.4 330 18.7 102060 91
2005-07-14 11:26 51°11.032 2°46.354 4.6 328 18.7 102060 91
2005-07-14 11:27 51°11.072 2°46.588 4.4 331 18.6 102060 91
2005-07-14 11:28 51°11.104 2°46.781 4 327 18.7 102060 91
2005-07-14 11:29 51°11.142 2°46.885 3 314 18.7 102060 91
2005-07-14 11:30 51°11.179 2°46.963 3.7 316 18.8 102060 91
2005-07-14 11:31 51°11.221 2°47.091 3.5 324 18.8 102060 91
2005-07-14 11:32 51°11.267 2°47.232 3.6 329 18.8 102060 91
2005-07-14 11:33 51°11.307 2°47.376 3.6 326 18.9 102050 91
2005-07-14 11:34 51°11.349 2°47.52 3.8 325 18.9 102050 91
2005-07-14 11:35 51°11.391 2°47.661 3.6 323 18.9 102050 91
2005-07-14 11:36 51°11.447 2°47.787 4.4 322 18.9 102050 91
2005-07-14 11:37 51°11.5 2°47.917 3.7 326 18.9 102050 91
2005-07-14 11:38 51°11.553 2°48.048 4 322 18.9 102050 91
2005-07-14 11:39 51°11.607 2°48.18 3.7 321 18.9 102050 91
2005-07-14 11:40 51°11.661 2°48.309 3.9 318 18.9 102050 91
2005-07-14 11:41 51°11.714 2°48.441 3.7 43 19 102050 91
2005-07-14 11:42 51°11.768 2°48.574 3.8 321 19 102050 91
2005-07-14 11:43 51°11.822 2°48.708 4.1 327 19.1 102050 91
2005-07-14 11:44 51°11.874 2°48.835 3.8 321 19.1 102050 91
2005-07-14 11:45 51°11.951 2°49.023 5.9 340 19.1 102040 91
2005-07-14 11:46 51°12.056 2°49.263 6.4 341 19.1 102040 91
2005-07-14 11:47 51°12.164 2°49.519 6.8 342 19.2 102040 91
2005-07-14 11:48 51°12.27 2°49.778 6.2 342 19.3 102040 90
2005-07-14 11:49 51°12.394 2°50.014 6.5 339 19.3 102040 90
2005-07-14 11:50 51°12.517 2°50.26 6.6 342 19.4 102030 90
2005-07-14 11:51 51°12.639 2°50.504 6.4 342 19.4 102030 90
2005-07-14 11:52 51°12.748 2°50.754 6.4 342 19.4 102030 89
2005-07-14 11:53 51°12.851 2°51.023 6.7 341 19.5 102030 89
2005-07-14 11:54 51°12.954 2°51.292 6.5 341 19.5 102030 89
2005-07-14 11:55 51°13.049 2°51.563 6.4 346 19.6 102030 88
2005-07-14 11:56 51°13.15 2°51.833 6.2 344 19.6 102030 88
2005-07-14 11:57 51°13.254 2°52.101 7.2 350 19.6 102030 88
2005-07-14 11:58 51°13.358 2°52.371 6.6 347 19.7 102030 88
2005-07-14 11:59 51°13.462 2°52.644 6.8 351 19.7 102030 87
2005-07-14 12:00 51°13.565 2°52.915 7.4 350 19.7 102030 87
2005-07-14 12:01 51°13.682 2°53.178 7.2 347 19.7 102030 87
2005-07-14 12:02 51°13.815 2°53.413 7.3 348 19.7 102030 87
2005-07-14 12:03 51°13.953 2°53.648 7.8 350 19.7 102030 87
2005-07-14 12:04 51°14.092 2°53.89 7.5 347 19.7 102030 87
2005-07-14 12:05 51°14.241 2°54.095 8.3 350 19.7 102030 87
2005-07-14 12:06 51°14.412 2°54.27 8.5 350 19.7 102020 86
2005-07-14 12:07 51°14.581 2°54.447 8.1 348 19.7 102020 87
2005-07-14 12:08 51°14.75 2°54.621 7.8 349 19.7 102020 87
2005-07-14 12:09 51°14.918 2°54.797 7.9 347 19.7 102020 87
2005-07-14 12:10 51°15.08 2°54.982 8.2 349 19.7 102020 87
2005-07-14 12:11 51°15.249 2°55.138 7.5 345 19.7 102020 87
2005-07-14 12:12 51°15.399 2°55.314 7.1 343 19.7 102020 86
2005-07-14 12:13 51°15.536 2°55.529 7.6 350 19.7 102020 86
2005-07-14 12:14 51°15.649 2°55.768 7.1 346 19.7 102020 87
2005-07-14 12:15 51°15.77 2°56.003 7.5 346 19.7 102020 87
2005-07-14 12:16 51°15.869 2°56.269 7.5 349 19.7 102020 87
2005-07-14 12:17 51°15.979 2°56.528 7.6 347 19.7 102020 87
2005-07-14 12:18 51°16.094 2°56.771 7.4 346 19.7 102020 87
2005-07-14 12:19 51°16.203 2°57.032 7.1 349 19.7 102020 87
2005-07-14 12:20 51°16.304 2°57.301 7.2 350 19.7 102020 87
2005-07-14 12:21 51°16.397 2°57.571 7 347 19.7 102010 87
2005-07-14 12:22 51°16.483 2°57.853 7.8 348 19.7 102010 87
2005-07-14 12:23 51°16.569 2°58.137 7.2 349 19.7 102010 87
2005-07-14 12:24 51°16.67 2°58.414 8.1 348 19.7 102010 87
2005-07-14 12:25 51°16.763 2°58.687 7.6 345 19.7 102010 87
2005-07-14 12:26 51°16.859 2°58.967 8.3 348 19.7 102010 87
2005-07-14 12:27 51°16.956 2°59.239 7.4 345 19.8 102010 86
2005-07-14 12:28 51°17.053 2°59.513 7.7 347 19.8 102010 86
2005-07-14 12:29 51°17.145 2°59.79 7.6 349 19.7 102010 86
2005-07-14 12:30 51°17.243 3°0.066 8.1 348 19.7 102010 86
2005-07-14 12:31 51°17.338 3°0.336 7.7 347 19.7 102010 87
2005-07-14 12:32 51°17.428 3°0.614 7.7 352 19.7 102010 87
2005-07-14 12:33 51°17.607 3°0.615 8.8 13 19.6 102010 87
2005-07-14 12:34 51°17.624 3°0.283 7.7 25 19.5 102010 87
2005-07-14 12:35 51°17.546 2°59.935 6.9 25 19.4 102010 87
2005-07-14 12:36 51°17.431 2°59.586 7 22 19.3 102010 89
2005-07-14 12:37 51°17.297 2°59.264 7 27 19.3 102010 89
2005-07-14 12:38 51°17.157 2°58.941 6.2 24 19.2 102010 90
2005-07-14 12:39 51°17.009 2°58.629 6.5 25 19.2 102010 91
2005-07-14 12:40 51°16.86 2°58.308 6.9 28 19.2 102010 91
2005-07-14 12:41 51°16.718 2°57.986 6.6 30 19.2 102000 91
2005-07-14 12:42 51°16.573 2°57.663 6.5 27 19.1 102000 92
2005-07-14 12:43 51°16.425 2°57.34 6.9 27 19.1 102000 92
2005-07-14 12:44 51°16.281 2°57.017 6.9 29 19.1 102000 92
2005-07-14 12:45 51°16.142 2°56.697 6.9 31 19.1 102000 92
2005-07-14 12:46 51°15.993 2°56.377 6.9 28 19.1 102000 93
2005-07-14 12:47 51°15.846 2°56.078 6.4 29 19 102000 93
2005-07-14 12:48 51°15.694 2°55.78 6.8 29 19 102000 93
2005-07-14 12:49 51°15.533 2°55.499 6.8 34 19 101990 93
2005-07-14 12:50 51°15.403 2°55.179 7.1 29 19 101990 93
2005-07-14 12:51 51°15.257 2°54.883 5.9 29 19.1 101990 93
2005-07-14 12:52 51°15.041 2°54.765 4.6 18 19.1 101990 93
2005-07-14 12:53 51°14.815 2°54.785 4.8 9 19.2 101990 92
2005-07-14 12:54 51°14.597 2°54.821 4.1 9 19.2 101990 92
2005-07-14 12:55 51°14.42 2°54.981 4.8 345 19.3 101990 92
2005-07-14 12:56 51°14.295 2°55.216 4.5 349 19.5 101990 91
2005-07-14 12:57 51°14.196 2°55.36 1.5 228 19.6 101990 91
2005-07-14 12:58 51°14.086 2°55.447 1.7 318 19.8 101980 91
2005-07-14 12:59 51°13.981 2°55.521 -999 311 19.9 101980 90
2005-07-14 13:00 51°13.886 2°55.591 -999 310 20.1 101980 89
2005-07-14 13:01 51°13.797 2°55.666 -999 274 20.3 101980 88
2005-07-14 13:02 51°13.748 2°55.753 2.3 270 20.5 101980 86
2005-07-14 13:03 51°13.726 2°55.817 2 227 20.6 101980 85
2005-07-14 13:04 51°13.708 2°55.863 2.1 251 20.7 101980 84
2005-07-14 13:05 51°13.706 2°55.868 2.1 234 20.9 101980 82